CA-0048 weather

CLOSED Bethany Airport
Manitoba, Canada

Public forecast

Using degrees Celsius for public forecast. Weather courtesy of forecast.io.

METAR (pilot weather report)

Closest report is Brandon Municipal Airport, 27.5 nm (51.0 km) SSW. Retrieved 2019/05/21 04:00 UTC (1 hour ago):

CYBR 210400Z 06009KT 15SM FEW250 09/M03 A3010 RMK CI1 SLP206

TAF (pilot weather forecast)

Forecast is more than 12 hours old.

Closest forecast is Brandon Municipal Airport, 27.5 nm (51.0 km) SSW. Retrieved 2019/05/20 00:39 UTC (1 day ago):

TAF TAF CYBR 202338Z 2100/2112 12008KT P6SM SCT090 TEMPO 2100/2103 BKN090 FM210300 07006KT P6SM SKC RMK NXT FCST BY 210600Z